Time;durP1;ratioP1;P1;durP2;ratioP2;P2;SDS_P1;SDS_P2;PMS_P1;PMS_P2;Temp;Humidity;BMP_temperature;BMP_pressure;BME280_temperature;BME280_humidity;BME280_pressure;Samples;Min_cycle;Max_cycle;Signal;HPM_P1;HPM_P2
2021/12/16 00:08:48;;;;;;;;;;;;;;;8.51;100.00;103494.28;5078779;28;20143;-74
2021/12/16 00:19:42;;;;;;;33.27;8.93;;;;;;;8.46;100.00;103490.44;5081735;28;20006;-74
2021/12/16 00:36:05;;;;;;;33.13;9.77;;;;;;;8.29;100.00;103487.53;5077063;28;20408;-74
2021/12/16 00:38:31;;;;;;;30.92;10.50;;;;;;;8.25;100.00;103490.75;5094804;28;20480;-74
2021/12/16 00:40:59;;;;;;;36.35;11.75;;;;;;;8.21;100.00;103493.97;5083700;28;20031;-74
2021/12/16 00:43:34;;;;;;;23.52;10.18;;;;;;;8.20;100.00;103492.16;5081040;28;20387;-74
2021/12/16 00:54:09;;;;;;;32.85;11.93;;;;;;;8.12;100.00;103493.34;5106161;28;20123;-74
2021/12/16 00:56:36;;;;;;;28.27;10.30;;;;;;;8.14;100.00;103491.72;5102661;28;20534;-75
2021/12/16 00:59:05;;;;;;;27.23;9.57;;;;;;;8.11;100.00;103492.41;5087579;28;20050;-74
2021/12/16 01:01:43;;;;;;;32.17;10.32;;;;;;;8.09;100.00;103507.13;5113025;28;20114;-74
2021/12/16 01:34:48;;;;;;;35.50;10.60;;;;;;;7.28;100.00;103521.47;5087120;28;20040;-74
2021/12/16 01:50:35;;;;;;;30.90;11.48;;;;;;;6.86;100.00;103536.75;5099142;28;20066;-75
2021/12/16 01:55:55;;;;;;;34.30;11.45;;;;;;;6.80;100.00;103545.84;5109832;28;20032;-74
2021/12/16 01:58:23;;;;;;;28.05;10.25;;;;;;;6.72;100.00;103550.50;5099894;28;20401;-74
2021/12/16 02:01:19;;;;;;;34.85;12.63;;;;;;;6.69;100.00;103547.66;5099196;28;20070;-74
2021/12/16 02:03:52;;;;;;;34.78;13.10;;;;;;;6.67;100.00;103557.06;5103675;28;20379;-74
2021/12/16 02:28:20;;;;;;;30.33;13.68;;;;;;;6.49;100.00;103577.50;5104627;28;20046;-74
2021/12/16 02:33:48;;;;;;;41.95;14.07;;;;;;;6.43;100.00;103580.56;5111009;28;20209;-74
2021/12/16 02:36:12;;;;;;;34.00;13.13;;;;;;;6.40;100.00;103583.84;5102975;28;20411;-74
2021/12/16 02:38:38;;;;;;;27.90;11.43;;;;;;;6.38;100.00;103574.97;5089199;28;20065;-75
2021/12/16 02:41:03;;;;;;;38.45;14.27;;;;;;;6.42;100.00;103576.13;5084427;28;20027;-74
2021/12/16 02:44:05;;;;;;;29.92;12.27;;;;;;;6.39;100.00;103575.88;5108591;28;20369;-74
2021/12/16 02:49:04;;;;;;;28.05;11.05;;;;;;;6.30;100.00;103581.28;5098727;28;20502;-74
2021/12/16 02:51:30;;;;;;;33.85;11.60;;;;;;;6.26;100.00;103581.84;5105905;28;20020;-74
2021/12/16 02:54:04;;;;;;;30.80;11.70;;;;;;;6.23;100.00;103584.22;5103160;28;20036;-74
2021/12/16 02:56:30;;;;;;;37.90;13.15;;;;;;;6.20;100.00;103582.28;5106945;28;20020;-74
2021/12/16 02:58:57;;;;;;;32.33;12.30;;;;;;;6.17;100.00;103576.81;5098911;28;20532;-74
2021/12/16 03:01:45;;;;;;;39.95;13.95;;;;;;;6.13;100.00;103576.44;5100395;28;20023;-74
2021/12/16 03:04:14;;;;;;;36.92;13.10;;;;;;;6.15;100.00;103574.88;5112242;28;20035;-74
2021/12/16 03:06:43;;;;;;;29.98;12.90;;;;;;;6.13;100.00;103582.59;5082279;28;20034;-74
2021/12/16 03:09:11;;;;;;;28.48;10.98;;;;;;;6.10;100.00;103576.22;5112286;28;20032;-74
2021/12/16 03:14:34;;;;;;;27.95;11.70;;;;;;;6.03;100.00;103573.09;5113772;28;20050;-74
2021/12/16 03:19:40;;;;;;;39.88;13.50;;;;;;;5.97;100.00;103577.81;5105857;28;20035;-74
2021/12/16 03:22:07;;;;;;;29.80;12.88;;;;;;;5.96;100.00;103572.47;5084401;28;20536;-74
2021/12/16 03:32:18;;;;;;;37.97;12.52;;;;;;;5.82;100.00;103587.03;5111349;28;20032;-74
2021/12/16 03:35:03;;;;;;;29.17;11.27;;;;;;;5.83;100.00;103594.09;5098015;28;20091;-74
2021/12/16 03:37:31;;;;;;;30.17;10.23;;;;;;;5.83;100.00;103587.19;5090238;28;20093;-74
2021/12/16 03:39:58;;;;;;;34.97;12.23;;;;;;;5.88;100.00;103587.53;5081624;28;20032;-74
2021/12/16 03:42:34;;;;;;;23.73;9.95;;;;;;;5.90;100.00;103580.72;5090612;28;20130;-74
2021/12/16 03:45:07;;;;;;;26.45;10.75;;;;;;;5.91;100.00;103585.16;5094478;28;20026;-74
2021/12/16 03:47:38;;;;;;;;;;;;;;;5.94;100.00;103581.88;5100806;28;20361;-74
2021/12/16 03:50:10;;;;;;;23.17;10.27;;;;;;;5.90;100.00;103583.31;5095807;28;19919;-74
2021/12/16 03:52:36;;;;;;;27.27;12.38;;;;;;;5.88;100.00;103579.69;5083259;28;20016;-74
2021/12/16 03:55:03;;;;;;;24.92;11.23;;;;;;;5.89;100.00;103571.06;5091306;28;20024;-74
2021/12/16 03:57:31;;;;;;;29.52;11.48;;;;;;;5.90;100.00;103565.03;5085260;28;20054;-74
2021/12/16 03:59:57;;;;;;;32.33;10.90;;;;;;;5.83;100.00;103563.66;5090061;28;20051;-74
2021/12/16 04:02:28;;;;;;;23.55;11.23;;;;;;;5.83;100.00;103575.78;5111908;28;20033;-75
2021/12/16 04:04:54;;;;;;;24.13;10.43;;;;;;;5.74;100.00;103582.09;5106973;28;20114;-74
2021/12/16 04:07:25;;;;;;;23.95;11.80;;;;;;;5.74;100.00;103579.50;5113087;28;20127;-74
2021/12/16 04:09:52;;;;;;;38.83;12.55;;;;;;;5.74;100.00;103579.50;5098828;28;20052;-75
2021/12/16 04:12:20;;;;;;;26.58;12.00;;;;;;;5.71;100.00;103587.09;5112605;28;20043;-74
2021/12/16 04:14:50;;;;;;;29.48;12.13;;;;;;;5.68;100.00;103584.25;5101567;28;20028;-74
2021/12/16 04:17:19;;;;;;;28.05;12.23;;;;;;;5.70;100.00;103586.97;5113504;28;20102;-74
2021/12/16 04:19:45;;;;;;;25.10;11.13;;;;;;;5.67;100.00;103585.03;5111725;28;20032;-75
2021/12/16 04:22:17;;;;;;;25.33;10.73;;;;;;;5.70;100.00;103594.81;5112051;28;20031;-74
2021/12/16 04:24:46;;;;;;;31.90;9.23;;;;;;;5.67;100.00;103595.47;5102013;28;20032;-75
2021/12/16 04:27:13;;;;;;;22.23;9.73;;;;;;;5.66;100.00;103598.88;5094677;28;20123;-74
2021/12/16 04:29:40;;;;;;;30.67;11.82;;;;;;;5.70;100.00;103611.38;5102258;28;20028;-74
2021/12/16 04:32:07;;;;;;;40.53;12.95;;;;;;;5.76;100.00;103602.22;5111649;28;20024;-74
2021/12/16 04:34:32;;;;;;;27.80;11.73;;;;;;;5.78;100.00;103598.03;5084103;28;20031;-74
2021/12/16 04:36:59;;;;;;;25.10;11.55;;;;;;;5.80;100.00;103596.47;5095274;28;20063;-74
2021/12/16 04:39:31;;;;;;;19.88;10.98;;;;;;;5.78;100.00;103592.78;5110608;28;20038;-75
2021/12/16 04:41:57;;;;;;;20.75;11.35;;;;;;;5.77;100.00;103591.00;5110557;28;20471;-74
2021/12/16 04:44:26;;;;;;;22.73;11.43;;;;;;;5.78;100.00;103590.19;5112629;28;20039;-75
2021/12/16 04:46:52;;;;;;;22.02;11.80;;;;;;;5.79;100.00;103589.41;5113046;28;20038;-74
2021/12/16 04:49:18;;;;;;;27.05;12.38;;;;;;;5.79;100.00;103589.41;5089542;28;20036;-74
2021/12/16 04:51:48;;;;;;;30.50;12.88;;;;;;;5.80;100.00;103589.53;5106546;28;20042;-74
2021/12/16 04:54:17;;;;;;;35.55;12.93;;;;;;;5.82;100.00;103594.88;5080605;28;20024;-74
2021/12/16 04:56:44;;;;;;;29.30;14.25;;;;;;;5.79;100.00;103599.84;5106556;28;20503;-74
2021/12/16 04:59:13;;;;;;;20.83;10.55;;;;;;;5.76;100.00;103597.00;5108871;28;20019;-74
2021/12/16 05:01:46;;;;;;;24.88;11.27;;;;;;;5.73;100.00;103595.94;5101863;28;20024;-74
2021/12/16 05:04:12;;;;;;;33.50;12.50;;;;;;;5.75;100.00;103598.69;5098648;28;20089;-74
2021/12/16 05:06:38;;;;;;;26.10;12.52;;;;;;;5.79;100.00;103605.06;5106229;28;20020;-74
2021/12/16 05:09:05;;;;;;;31.80;12.13;;;;;;;5.79;100.00;103610.31;5112237;28;20040;-74
2021/12/16 05:11:34;;;;;;;31.25;12.85;;;;;;;5.78;100.00;103609.41;5100202;28;20487;-74
2021/12/16 05:14:00;;;;;;;25.48;11.93;;;;;;;5.78;100.00;103618.91;5107684;28;20027;-74
2021/12/16 05:16:26;;;;;;;25.20;12.45;;;;;;;5.80;100.00;103625.19;5113498;28;20038;-74
2021/12/16 05:18:54;;;;;;;42.58;15.52;;;;;;;5.78;100.00;103614.63;5113052;28;20096;-74
2021/12/16 05:24:17;;;;;;;53.15;22.27;;;;;;;5.74;100.00;103628.25;5098905;28;20026;-74
2021/12/16 05:26:44;;;;;;;48.80;19.67;;;;;;;5.69;100.00;103625.22;5085458;28;20547;-74
2021/12/16 05:29:10;;;;;;;42.58;16.73;;;;;;;5.60;100.00;103621.88;5097108;28;20114;-74
2021/12/16 05:31:37;;;;;;;28.25;13.10;;;;;;;5.59;100.00;103622.66;5107772;28;20069;-74
2021/12/16 05:34:04;;;;;;;21.23;11.88;;;;;;;5.54;100.00;103621.38;5108262;28;20028;-74
2021/12/16 05:36:30;;;;;;;20.15;11.07;;;;;;;5.52;100.00;103630.78;5109539;28;20052;-75
2021/12/16 05:38:56;;;;;;;22.75;11.88;;;;;;;5.52;100.00;103631.69;5100371;28;20550;-74
2021/12/16 05:41:22;;;;;;;26.65;12.35;;;;;;;5.48;100.00;103634.84;5106310;28;20095;-74
2021/12/16 05:43:49;;;;;;;25.98;11.55;;;;;;;5.45;100.00;103638.91;5090572;28;20032;-74
2021/12/16 05:46:17;;;;;;;19.63;10.63;;;;;;;5.43;100.00;103635.25;5113782;28;20039;-74
2021/12/16 05:48:45;;;;;;;20.75;11.43;;;;;;;5.43;100.00;103635.25;5110937;28;20088;-74
2021/12/16 05:51:23;;;;;;;29.17;12.43;;;;;;;5.45;100.00;103638.91;5108900;28;20118;-74
2021/12/16 05:53:50;;;;;;;28.02;12.60;;;;;;;5.43;100.00;103646.59;5082760;28;20541;-74
2021/12/16 05:56:16;;;;;;;23.15;11.32;;;;;;;5.38;100.00;103647.91;5098178;28;20043;-73
2021/12/16 05:58:42;;;;;;;25.48;11.73;;;;;;;5.36;100.00;103647.78;5079909;28;20042;-73
2021/12/16 06:01:16;;;;;;;23.27;11.30;;;;;;;5.33;100.00;103644.00;5090271;28;20033;-73
2021/12/16 06:03:45;;;;;;;25.80;11.70;;;;;;;5.29;100.00;103645.47;5090080;28;20404;-73
2021/12/16 06:06:12;;;;;;;24.85;11.25;;;;;;;5.28;100.00;103641.03;5105757;28;20085;-73
2021/12/16 06:08:38;;;;;;;24.85;13.40;;;;;;;5.29;100.00;103639.31;5108174;28;20359;-73
2021/12/16 06:13:43;;;;;;;26.02;12.80;;;;;;;5.23;100.00;103647.56;5100991;28;20112;-73
2021/12/16 06:27:14;;;;;;;26.17;11.80;;;;;;;4.96;100.00;103662.69;5083941;28;20055;-72
2021/12/16 06:29:44;;;;;;;23.02;11.98;;;;;;;4.95;100.00;103666.13;5098475;28;20032;-70
2021/12/16 06:32:11;;;;;;;25.70;12.10;;;;;;;4.93;100.00;103665.06;5099729;28;20020;-71
2021/12/16 06:34:37;;;;;;;18.75;11.60;;;;;;;4.88;100.00;103674.19;5103868;28;20110;-71
2021/12/16 06:37:03;;;;;;;16.15;10.35;;;;;;;4.82;100.00;103676.28;5087101;28;20531;-72
2021/12/16 06:39:28;;;;;;;20.25;10.02;;;;;;;4.74;100.00;103683.44;5108805;28;20078;-71
2021/12/16 06:41:54;;;;;;;26.90;12.65;;;;;;;4.72;100.00;103685.00;5085623;28;20068;-70
2021/12/16 06:44:28;;;;;;;26.92;12.52;;;;;;;4.72;100.00;103685.91;5103231;28;20329;-70
2021/12/16 06:46:59;;;;;;;21.17;12.10;;;;;;;4.76;100.00;103683.56;5099513;28;20471;-73
2021/12/16 06:49:26;;;;;;;30.33;14.30;;;;;;;4.79;100.00;103695.19;5102976;28;20024;-70
2021/12/16 06:51:59;;;;;;;24.80;12.43;;;;;;;4.78;100.00;103697.66;5105094;28;20070;-71
2021/12/16 06:54:33;;;;;;;26.83;13.03;;;;;;;4.72;100.00;103698.03;5099962;28;20050;-72
2021/12/16 06:59:30;;;;;;;24.30;13.00;;;;;;;4.62;100.00;103695.44;5096954;28;20136;-70
2021/12/16 07:04:30;;;;;;;26.08;12.65;;;;;;;4.60;100.00;103708.34;5106296;28;20036;-70
2021/12/16 07:06:56;;;;;;;28.40;12.52;;;;;;;4.56;100.00;103720.19;5098437;28;20047;-70
2021/12/16 07:09:22;;;;;;;23.13;13.25;;;;;;;4.61;100.00;103715.34;5097187;28;20475;-70
2021/12/16 07:11:52;;;;;;;23.25;12.70;;;;;;;4.61;100.00;103704.91;5100961;28;20102;-70
2021/12/16 07:14:22;;;;;;;24.02;13.73;;;;;;;4.62;100.00;103709.38;5078385;28;20028;-70
2021/12/16 07:16:52;;;;;;;25.17;12.93;;;;;;;4.63;100.00;103718.13;5099535;28;20073;-70
2021/12/16 07:19:17;;;;;;;29.83;12.95;;;;;;;4.62;100.00;103714.59;5081316;28;20027;-71
2021/12/16 07:21:44;;;;;;;28.92;13.73;;;;;;;4.63;100.00;103720.72;5100427;28;20065;-72
2021/12/16 07:24:16;;;;;;;25.63;13.63;;;;;;;4.61;100.00;103733.59;5089689;28;20063;-71
2021/12/16 07:26:42;;;;;;;23.00;12.32;;;;;;;4.61;100.00;103751.88;5098995;27;20065;-71
2021/12/16 07:29:08;;;;;;;22.00;12.45;;;;;;;4.57;100.00;103749.78;5108755;27;20405;-71
2021/12/16 07:31:34;;;;;;;22.80;12.90;;;;;;;4.56;100.00;103747.97;5102928;28;20031;-71
2021/12/16 07:34:01;;;;;;;26.15;13.95;;;;;;;4.55;100.00;103751.34;5103190;28;20031;-71
2021/12/16 07:36:30;;;;;;;26.52;13.27;;;;;;;4.55;100.00;103753.94;5097905;28;20055;-71
2021/12/16 07:38:55;;;;;;;24.00;13.80;;;;;;;4.53;100.00;103764.25;5104523;28;20034;-71
2021/12/16 07:41:25;;;;;;;26.33;14.48;;;;;;;4.56;100.00;103763.63;5078212;28;20028;-71
2021/12/16 07:43:58;;;;;;;22.45;13.15;;;;;;;4.53;100.00;103761.66;5087193;28;20488;-71
2021/12/16 07:46:25;;;;;;;26.50;12.88;;;;;;;4.51;100.00;103764.91;5098757;28;20476;-70
2021/12/16 07:48:52;;;;;;;23.35;12.30;;;;;;;4.47;100.00;103788.88;5107411;28;20027;-71
2021/12/16 07:51:19;;;;;;;26.05;13.52;;;;;;;4.46;100.00;103793.16;5103446;28;20026;-71
2021/12/16 07:53:44;;;;;;;20.98;11.68;;;;;;;4.42;100.00;103783.22;5102358;28;20080;-70
2021/12/16 07:56:10;;;;;;;42.35;18.48;;;;;;;4.44;100.00;103789.50;5105752;28;20430;-71
2021/12/16 07:58:37;;;;;;;33.92;16.20;;;;;;;4.44;100.00;103796.44;5099198;28;20024;-71
2021/12/16 08:01:04;;;;;;;34.58;15.82;;;;;;;4.41;100.00;103788.31;5099460;28;20387;-71
2021/12/16 08:03:35;;;;;;;33.83;15.68;;;;;;;4.43;100.00;103784.16;5079898;28;20016;-71
2021/12/16 08:06:06;;;;;;;36.80;15.80;;;;;;;4.45;100.00;103790.41;5101658;28;20078;-70
2021/12/16 08:08:32;;;;;;;33.45;14.85;;;;;;;4.45;100.00;103799.16;5098127;28;20433;-71
2021/12/16 08:10:58;;;;;;;24.00;13.38;;;;;;;4.45;100.00;103793.00;5101325;28;20413;-70
2021/12/16 08:13:24;;;;;;;28.10;14.23;;;;;;;4.47;100.00;103784.56;5100638;28;20085;-71
2021/12/16 08:15:51;;;;;;;23.48;13.10;;;;;;;4.48;100.00;103798.53;5099277;28;20081;-71
2021/12/16 08:18:17;;;;;;;26.58;12.70;;;;;;;4.45;100.00;103800.84;5086843;28;20501;-72
2021/12/16 08:20:42;;;;;;;24.40;13.45;;;;;;;4.46;100.00;103798.38;5102140;28;20111;-75
2021/12/16 08:23:08;;;;;;;30.63;15.52;;;;;;;4.49;100.00;103790.84;5100262;28;20058;-74
2021/12/16 08:25:35;;;;;;;31.80;15.35;;;;;;;4.54;100.00;103813.03;5111229;28;20107;-73
2021/12/16 08:28:05;;;;;;;30.38;14.02;;;;;;;4.55;100.00;103819.16;5101260;28;20032;-74
2021/12/16 08:30:37;;;;;;;23.17;13.68;;;;;;;4.59;100.00;103813.44;5103561;28;20056;-75
2021/12/16 08:33:09;;;;;;;28.55;15.25;;;;;;;4.65;100.00;103810.44;5096058;28;20032;-74
2021/12/16 08:35:37;;;;;;;28.35;16.20;;;;;;;4.67;100.00;103814.13;5109974;28;20094;-73
2021/12/16 08:38:03;;;;;;;32.35;15.25;;;;;;;4.69;100.00;103820.38;5093415;28;20156;-74
2021/12/16 08:40:29;;;;;;;33.25;15.73;;;;;;;4.74;100.00;103808.66;5111024;28;20472;-74
2021/12/16 08:42:55;;;;;;;36.63;16.38;;;;;;;4.80;100.00;103809.22;5109126;28;20028;-73
2021/12/16 08:45:26;;;;;;;31.45;15.57;;;;;;;4.87;100.00;103819.41;5103989;28;20153;-74
2021/12/16 08:47:52;;;;;;;28.73;15.55;;;;;;;4.87;100.00;103832.44;5100913;28;20028;-74
2021/12/16 08:50:20;;;;;;;33.88;15.18;;;;;;;4.88;100.00;103836.88;5109468;28;20027;-74
2021/12/16 08:52:46;;;;;;;37.80;16.63;;;;;;;4.94;100.00;103846.00;5102784;28;20027;-74
2021/12/16 08:55:14;;;;;;;29.75;15.85;;;;;;;4.99;100.00;103845.66;5110697;28;20156;-74
2021/12/16 08:57:40;;;;;;;28.17;16.75;;;;;;;5.04;100.00;103839.13;5085046;28;20042;-74
2021/12/16 09:00:12;;;;;;;36.45;16.10;;;;;;;5.12;100.00;103842.41;5102078;28;20081;-74
2021/12/16 09:02:38;;;;;;;34.38;17.33;;;;;;;5.22;100.00;103849.34;5089861;28;20043;-74
2021/12/16 09:05:06;;;;;;;34.67;19.17;;;;;;;5.33;100.00;103859.03;5109537;28;20455;-74
2021/12/16 09:07:31;;;;;;;35.15;16.92;;;;;;;5.46;100.00;103849.66;5086136;28;20027;-74
2021/12/16 09:09:58;;;;;;;35.47;17.05;;;;;;;5.53;100.00;103846.78;5096444;28;20043;-74
2021/12/16 09:14:57;;;;;;;41.85;17.70;;;;;;;5.64;100.00;103845.97;5091507;28;20392;-73
2021/12/16 09:17:24;;;;;;;45.95;18.67;;;;;;;5.76;100.00;103853.06;5095673;28;20379;-74
2021/12/16 09:19:52;;;;;;;45.72;20.73;;;;;;;5.86;100.00;103863.50;5100690;28;20032;-74
2021/12/16 09:22:19;;;;;;;34.65;16.95;;;;;;;5.98;100.00;103859.38;5113719;28;20031;-75
2021/12/16 09:24:47;;;;;;;40.55;20.42;;;;;;;6.10;100.00;103861.16;5103963;28;20043;-74
2021/12/16 09:27:15;;;;;;;45.40;21.77;;;;;;;6.25;100.00;103859.81;5081032;28;20028;-74
2021/12/16 09:29:41;;;;;;;46.88;23.67;;;;;;;6.39;100.00;103854.03;5113352;28;20030;-73
2021/12/16 09:32:08;;;;;;;53.33;25.80;;;;;;;6.54;100.00;103856.09;5098831;28;20063;-74
2021/12/16 09:34:36;;;;;;;48.88;23.88;;;;;;;6.71;100.00;103866.19;5078947;28;20032;-74
2021/12/16 09:37:01;;;;;;;54.72;24.88;;;;;;;6.87;100.00;103865.75;5096622;28;20082;-73
2021/12/16 09:39:27;;;;;;;53.33;26.10;;;;;;;7.15;100.00;103862.72;5079564;28;20441;-74
2021/12/16 09:41:57;;;;;;;56.42;24.00;;;;;;;7.42;100.00;103858.75;5114731;28;20081;-74
2021/12/16 09:44:24;;;;;;;55.88;25.60;;;;;;;7.74;100.00;103862.03;5106438;28;20032;-74
2021/12/16 09:46:52;;;;;;;54.08;25.08;;;;;;;8.05;100.00;103873.16;5108851;28;20038;-74
2021/12/16 09:49:20;;;;;;;57.38;27.08;;;;;;;8.34;100.00;103879.69;5112611;28;20023;-74
2021/12/16 09:51:47;;;;;;;61.83;26.17;;;;;;;8.61;100.00;103872.06;5102309;28;20106;-74
2021/12/16 09:54:16;;;;;;;57.42;26.58;;;;;;;8.97;100.00;103875.53;5106605;28;20020;-73
2021/12/16 09:56:45;;;;;;;49.00;24.83;;;;;;;9.15;100.00;103882.94;5109649;28;20084;-74
2021/12/16 09:59:13;;;;;;;38.97;21.38;;;;;;;9.27;100.00;103875.91;5102966;28;20027;-75
2021/12/16 10:01:41;;;;;;;37.90;19.60;;;;;;;9.57;100.00;103877.13;5086050;28;20456;-74
2021/12/16 10:04:09;;;;;;;33.70;18.00;;;;;;;9.95;100.00;103892.03;5097923;28;20114;-75
2021/12/16 10:06:38;;;;;;;28.60;15.32;;;;;;;10.22;100.00;103888.53;5079959;28;20506;-75
2021/12/16 10:09:06;;;;;;;28.17;14.57;;;;;;;10.63;100.00;103880.78;5097463;28;20051;-75
2021/12/16 10:11:34;;;;;;;21.77;14.02;;;;;;;10.99;100.00;103880.44;5096841;28;20020;-75
2021/12/16 10:14:19;;;;;;;22.23;12.30;;;;;;;11.47;100.00;103871.13;5107713;28;20040;-75
2021/12/16 10:19:33;;;;;;;20.63;11.00;;;;;;;12.39;100.00;103873.94;5106373;28;20059;-73
2021/12/16 10:22:22;;;;;;;18.25;10.05;;;;;;;12.77;97.61;103872.59;5083044;28;20024;-73
2021/12/16 10:24:50;;;;;;;17.17;10.43;;;;;;;13.21;97.16;103876.78;5087725;28;20023;-73
2021/12/16 10:27:22;;;;;;;16.35;9.15;;;;;;;13.52;93.64;103861.69;5081413;28;20024;-73
2021/12/16 10:30:04;;;;;;;17.63;9.75;;;;;;;13.78;91.57;103869.25;5089785;28;20043;-73
2021/12/16 10:32:40;;;;;;;19.45;9.48;;;;;;;14.02;89.26;103860.75;5098039;28;20051;-74
2021/12/16 10:35:27;;;;;;;16.90;9.88;;;;;;;14.19;87.82;103874.84;5097817;28;20419;-72
2021/12/16 10:37:58;;;;;;;18.58;9.90;;;;;;;14.32;85.81;103863.13;5107395;28;20100;-74
2021/12/16 10:40:28;;;;;;;16.67;9.45;;;;;;;14.27;87.42;103875.22;5092735;28;20031;-73
2021/12/16 10:42:55;;;;;;;17.50;10.15;;;;;;;14.42;86.39;103870.69;5101005;28;20035;-71
2021/12/16 10:45:45;;;;;;;18.65;10.10;;;;;;;14.46;84.20;103864.72;5103868;28;20020;-72
2021/12/16 10:48:13;;;;;;;16.52;10.85;;;;;;;14.13;84.45;103870.16;5102167;28;20039;-72
2021/12/16 10:50:48;;;;;;;16.23;9.48;;;;;;;14.56;85.91;103871.38;5101987;28;20535;-72
2021/12/16 10:53:14;;;;;;;19.98;10.25;;;;;;;14.73;84.47;103869.56;5079279;28;20054;-72
2021/12/16 10:55:57;;;;;;;15.88;8.85;;;;;;;15.06;82.63;103861.38;5096233;28;20059;-71
2021/12/16 10:58:48;;;;;;;15.38;9.43;;;;;;;15.31;82.14;103867.81;5108979;28;20027;-73
2021/12/16 11:01:35;;;;;;;14.45;8.90;;;;;;;15.12;83.00;103880.22;5070452;28;20048;-73
2021/12/16 11:04:04;;;;;;;22.83;9.32;;;;;;;15.67;80.53;103865.00;5098252;28;20024;-72
2021/12/16 11:06:37;;;;;;;14.63;8.68;;;;;;;15.39;80.93;103869.06;5083489;28;20050;-72
2021/12/16 11:09:27;;;;;;;16.60;8.20;;;;;;;15.74;79.88;103877.69;5098649;28;20054;-73
2021/12/16 11:12:11;;;;;;;17.30;8.20;;;;;;;15.64;78.81;103870.16;5084001;28;20418;-72
2021/12/16 11:14:40;;;;;;;18.77;8.23;;;;;;;15.40;80.88;103865.59;5096034;28;20028;-73
2021/12/16 11:17:08;;;;;;;19.85;8.18;;;;;;;15.35;79.79;103861.81;5098009;28;20034;-73
2021/12/16 11:19:39;;;;;;;12.93;7.15;;;;;;;15.45;79.23;103864.06;5098966;28;20043;-73
2021/12/16 11:22:06;;;;;;;18.77;7.97;;;;;;;15.49;78.69;103863.34;5095488;28;20400;-73
2021/12/16 11:24:31;;;;;;;21.73;8.18;;;;;;;15.95;77.96;103863.56;5107833;28;20024;-73
2021/12/16 11:26:58;;;;;;;16.83;7.38;;;;;;;15.94;76.90;103859.09;5087181;28;20037;-73
2021/12/16 11:29:31;;;;;;;18.25;7.82;;;;;;;16.00;77.05;103848.75;5077828;28;20023;-73
2021/12/16 11:31:57;;;;;;;15.77;7.23;;;;;;;15.81;77.08;103855.00;5100923;28;20148;-73
2021/12/16 11:34:23;;;;;;;15.18;7.55;;;;;;;15.76;77.31;103851.22;5111246;28;20285;-72
2021/12/16 11:36:54;;;;;;;15.40;7.65;;;;;;;15.74;77.54;103856.47;5097341;28;20035;-73
2021/12/16 11:39:29;;;;;;;19.67;7.07;;;;;;;15.71;77.77;103856.34;5098336;28;20379;-72
2021/12/16 11:42:00;;;;;;;14.90;7.22;;;;;;;15.65;78.59;103854.31;5086990;28;20024;-72
2021/12/16 11:44:29;;;;;;;15.25;7.20;;;;;;;15.25;80.78;103864.91;5083461;28;20138;-72
2021/12/16 11:47:06;;;;;;;18.35;7.28;;;;;;;15.60;79.19;103857.59;5106917;28;20042;-74
2021/12/16 11:49:34;;;;;;;19.23;7.88;;;;;;;15.93;77.46;103857.31;5077564;28;20044;-72
2021/12/16 11:52:00;;;;;;;13.40;6.50;;;;;;;15.95;75.37;103844.97;5107847;28;20024;-72
2021/12/16 11:54:53;;;;;;;18.10;7.03;;;;;;;15.91;75.44;103843.97;5092880;28;20142;-72
2021/12/16 11:57:28;;;;;;;17.40;7.32;;;;;;;16.23;74.59;103844.38;5085948;28;20020;-72
2021/12/16 12:00:29;;;;;;;10.18;6.05;;;;;;;16.58;72.34;103841.38;5089373;28;20138;-74
2021/12/16 12:03:02;;;;;;;13.40;6.30;;;;;;;16.71;71.49;103833.00;5054255;28;20068;-73
2021/12/16 12:05:31;;;;;;;10.98;6.40;;;;;;;16.71;72.21;103845.41;5101870;28;20472;-73
2021/12/16 12:08:12;;;;;;;11.70;5.43;;;;;;;16.89;71.01;103839.88;5098009;28;20032;-74
2021/12/16 12:10:46;;;;;;;14.00;6.50;;;;;;;16.71;70.06;103835.66;5099119;28;20095;-73
2021/12/16 12:13:19;;;;;;;11.88;5.95;;;;;;;17.09;69.64;103833.63;5107963;28;20171;-74
2021/12/16 12:15:53;;;;;;;11.70;6.22;;;;;;;17.14;67.79;103825.78;5098380;28;20032;-73
2021/12/16 12:18:55;;;;;;;14.75;6.47;;;;;;;17.28;67.07;103827.22;5094666;28;20450;-74
2021/12/16 12:21:33;;;;;;;13.55;6.07;;;;;;;17.17;68.25;103821.50;5079393;28;20035;-73
2021/12/16 12:24:01;;;;;;;12.82;6.03;;;;;;;17.21;68.19;103825.16;5078025;28;20040;-73
2021/12/16 12:26:30;;;;;;;12.60;6.55;;;;;;;17.18;67.41;103830.38;5104771;28;20026;-74
2021/12/16 12:29:06;;;;;;;20.63;7.43;;;;;;;16.77;68.46;103824.38;5100054;28;20044;-74
2021/12/16 12:31:35;;;;;;;15.82;7.55;;;;;;;16.90;69.34;103823.13;5100739;28;20027;-72
2021/12/16 12:34:01;;;;;;;13.95;6.80;;;;;;;17.17;69.42;103823.25;5099370;28;20058;-74
2021/12/16 12:36:28;;;;;;;18.55;7.82;;;;;;;17.52;67.75;103829.84;5112924;28;20048;-74
2021/12/16 12:38:53;;;;;;;16.48;7.53;;;;;;;17.86;66.54;103822.13;5103033;28;20028;-73
2021/12/16 12:41:21;;;;;;;17.35;7.07;;;;;;;18.41;66.40;103820.41;5106730;28;20439;-73
2021/12/16 12:43:47;;;;;;;14.73;6.93;;;;;;;18.83;65.21;103817.25;5098387;28;20028;-74
2021/12/16 12:46:13;;;;;;;15.15;6.70;;;;;;;19.21;62.86;103812.16;5102283;28;20051;-73
2021/12/16 12:48:42;;;;;;;15.68;6.55;;;;;;;19.46;61.11;103818.16;5103176;28;20036;-73
2021/12/16 12:51:08;;;;;;;15.32;6.35;;;;;;;19.46;60.76;103826.16;5092695;28;20043;-74
2021/12/16 12:53:33;;;;;;;11.77;5.78;;;;;;;19.57;59.91;103825.56;5098852;28;20035;-73
2021/12/16 12:56:11;;;;;;;13.13;5.60;;;;;;;19.58;59.60;103816.69;5109016;28;20031;-74
2021/12/16 12:58:58;;;;;;;14.98;5.68;;;;;;;19.59;58.64;103807.78;5103789;28;20023;-74
2021/12/16 13:01:55;;;;;;;13.05;5.93;;;;;;;19.68;58.30;103819.66;5085319;28;20032;-75
2021/12/16 13:04:25;;;;;;;11.15;6.32;;;;;;;19.46;58.92;103823.50;5083965;28;20034;-74
2021/12/16 13:06:53;;;;;;;10.25;5.93;;;;;;;19.44;58.62;103819.91;5106762;28;20031;-73
2021/12/16 13:09:36;;;;;;;15.75;6.57;;;;;;;19.61;58.52;103809.66;5087853;28;20028;-73
2021/12/16 13:12:28;;;;;;;15.52;6.93;;;;;;;19.67;57.85;103815.16;5112800;28;20032;-73
2021/12/16 13:15:03;;;;;;;13.18;5.78;;;;;;;19.58;58.58;103809.56;5082546;28;20016;-75
2021/12/16 13:28:22;;;;;;;12.27;5.93;;;;;;;19.08;58.68;103820.66;5100756;28;20031;-75
2021/12/16 13:31:00;;;;;;;16.98;6.13;;;;;;;18.99;59.97;103818.66;5082982;28;20476;-74
2021/12/16 13:33:54;;;;;;;11.48;6.05;;;;;;;19.07;59.27;103810.84;5109343;28;20036;-75
2021/12/16 13:36:39;;;;;;;13.85;6.18;;;;;;;18.64;60.58;103817.56;5091844;28;20127;-75
2021/12/16 13:39:11;;;;;;;16.27;5.10;;;;;;;18.63;60.78;103821.06;5111320;28;20095;-75
2021/12/16 13:41:53;;;;;;;11.82;5.13;;;;;;;18.47;60.64;103817.03;5102388;28;20483;-74
2021/12/16 13:44:18;;;;;;;13.68;5.40;;;;;;;18.43;60.67;103813.34;5098377;28;20016;-73
2021/12/16 13:47:07;;;;;;;14.20;5.88;;;;;;;18.30;61.50;103809.41;5087876;28;20036;-74
2021/12/16 14:03:45;;;;;;;11.18;5.55;;;;;;;17.34;63.76;103822.09;5101817;28;20423;-74
2021/12/16 14:08:45;;;;;;;13.45;5.93;;;;;;;17.32;63.63;103841.53;5100704;28;20394;-73
2021/12/16 14:14:55;;;;;;;11.93;5.47;;;;;;;17.13;65.60;103843.53;5113111;28;20104;-73
2021/12/16 14:23:44;;;;;;;12.02;5.57;;;;;;;16.14;68.91;103862.59;5101110;28;20077;-73
2021/12/16 14:37:19;;;;;;;;;;;;;;;13.76;78.72;103877.94;5108234;28;20059;-73
2021/12/16 14:40:08;;;;;;;16.25;6.80;;;;;;;13.35;80.45;103874.88;5102242;28;19945;-74
2021/12/16 14:45:43;;;;;;;18.50;7.88;;;;;;;12.56;84.54;103885.47;5106663;28;20084;-74
2021/12/16 14:48:31;;;;;;;16.08;7.40;;;;;;;12.21;87.81;103895.81;5084677;28;20139;-73
2021/12/16 14:51:04;;;;;;;14.07;7.35;;;;;;;12.04;88.83;103897.44;5082108;28;20069;-73